createdAt,value
2022-10-18T00:02:06.649Z,62.18
2022-10-18T00:04:33.633Z,61.70
2022-10-18T00:07:00.238Z,61.02
2022-10-18T00:09:27.747Z,61.46
2022-10-18T00:11:55.534Z,61.57
2022-10-18T00:14:22.395Z,62.75
2022-10-18T00:16:49.095Z,61.26
2022-10-18T00:19:15.716Z,61.24
2022-10-18T00:24:11.305Z,61.38
2022-10-18T00:26:37.928Z,62.58
2022-10-18T00:29:05.930Z,62.40
2022-10-18T00:31:35.413Z,62.33
2022-10-18T00:34:13.663Z,61.60
2022-10-18T00:36:40.284Z,61.52
2022-10-18T00:39:08.390Z,62.18
2022-10-18T00:41:37.989Z,62.89
2022-10-18T00:44:27.334Z,61.87
2022-10-18T00:47:02.326Z,63.38
2022-10-18T00:49:35.381Z,64.15
2022-10-18T00:52:26.136Z,65.95
2022-10-18T00:54:54.261Z,65.36
2022-10-18T00:57:21.149Z,64.76
2022-10-18T00:59:48.210Z,64.53
2022-10-18T01:02:18.293Z,64.05
2022-10-18T01:04:46.755Z,64.19
2022-10-18T01:07:25.974Z,63.86
2022-10-18T01:10:01.618Z,64.15
2022-10-18T01:12:49.340Z,64.19
2022-10-18T01:15:20.482Z,64.55
2022-10-18T01:18:19.041Z,63.08
2022-10-18T01:20:51.663Z,63.81
2022-10-18T01:23:31.592Z,64.09
2022-10-18T01:26:42.782Z,64.65
2022-10-18T01:29:30.786Z,63.47
2022-10-18T01:32:12.887Z,63.60
2022-10-18T01:34:43.218Z,63.85
2022-10-18T01:37:14.293Z,66.04
2022-10-18T01:39:44.271Z,67.51
2022-10-18T01:42:14.024Z,67.00
2022-10-18T01:44:42.866Z,65.66
2022-10-18T01:47:11.641Z,65.17
2022-10-18T01:49:38.203Z,65.72
2022-10-18T01:52:05.224Z,65.35
2022-10-18T01:54:36.431Z,67.42
2022-10-18T01:57:09.791Z,66.77
2022-10-18T01:59:45.319Z,68.55
2022-10-18T02:02:42.082Z,67.63
2022-10-18T02:05:24.528Z,66.31
2022-10-18T02:08:12.503Z,66.82
2022-10-18T02:10:50.672Z,65.90
2022-10-18T02:13:21.347Z,65.02
2022-10-18T02:15:51.476Z,65.39
2022-10-18T02:18:42.502Z,64.54
2022-10-18T02:21:13.575Z,65.38
2022-10-18T02:23:40.159Z,65.03
2022-10-18T02:26:07.154Z,64.90
2022-10-18T02:28:34.027Z,64.65
2022-10-18T02:31:15.916Z,67.08
2022-10-18T02:33:56.780Z,67.07
2022-10-18T02:36:32.103Z,67.25
2022-10-18T02:39:04.646Z,66.03
2022-10-18T02:41:32.220Z,65.58
2022-10-18T02:43:58.855Z,65.46
2022-10-18T02:48:57.167Z,65.39
2022-10-18T02:51:23.769Z,64.64
2022-10-18T02:53:50.359Z,64.67
2022-10-18T02:56:16.952Z,64.71
2022-10-18T02:58:43.542Z,64.39
2022-10-18T03:01:10.209Z,64.75
2022-10-18T03:03:36.903Z,65.61
2022-10-18T03:06:03.586Z,64.72
2022-10-18T03:08:30.236Z,64.49
2022-10-18T03:10:56.868Z,64.45
2022-10-18T03:13:23.576Z,63.68
2022-10-18T03:15:50.171Z,63.27
2022-10-18T03:18:16.783Z,63.61
2022-10-18T03:20:43.811Z,63.58
2022-10-18T03:23:10.499Z,64.85
2022-10-18T03:25:37.091Z,64.81
2022-10-18T03:28:03.975Z,64.62
2022-10-18T03:30:30.630Z,64.49
2022-10-18T03:32:57.254Z,64.42
2022-10-18T03:35:23.854Z,64.43
2022-10-18T03:37:50.994Z,63.74
2022-10-18T03:40:18.170Z,63.50
2022-10-18T03:42:44.898Z,64.39
2022-10-18T03:45:11.626Z,64.64
2022-10-18T03:47:38.256Z,63.95
2022-10-18T03:50:05.387Z,63.80
2022-10-18T03:52:32.182Z,63.82
2022-10-18T03:54:59.011Z,64.43
2022-10-18T03:57:25.675Z,64.31
2022-10-18T03:59:52.259Z,63.65
2022-10-18T04:02:19.047Z,63.22
2022-10-18T04:04:45.678Z,63.09
2022-10-18T04:07:12.346Z,63.31
2022-10-18T04:09:38.930Z,63.20
2022-10-18T04:12:05.695Z,63.02
2022-10-18T04:14:32.274Z,62.79
2022-10-18T04:16:58.880Z,63.20
2022-10-18T04:19:25.447Z,63.59
2022-10-18T04:21:52.046Z,63.29
2022-10-18T04:24:18.629Z,64.51
2022-10-18T04:26:45.482Z,64.89
2022-10-18T04:29:12.351Z,64.97
2022-10-18T04:31:39.002Z,65.51
2022-10-18T04:34:05.563Z,65.53
2022-10-18T04:36:32.218Z,64.92
2022-10-18T04:38:58.778Z,64.92
2022-10-18T04:41:25.485Z,64.29
2022-10-18T04:43:52.056Z,63.96
2022-10-18T04:46:18.756Z,63.98
2022-10-18T04:48:45.327Z,64.06
2022-10-18T04:51:11.982Z,64.28
2022-10-18T04:53:38.716Z,65.12
2022-10-18T04:56:05.708Z,65.10
2022-10-18T04:58:32.810Z,64.54
2022-10-18T05:00:59.494Z,64.10
2022-10-18T05:03:26.093Z,66.81
2022-10-18T05:06:08.032Z,66.06
2022-10-18T05:08:35.987Z,65.76
2022-10-18T05:11:03.985Z,65.98
2022-10-18T05:13:31.071Z,65.42
2022-10-18T05:15:59.529Z,65.21
2022-10-18T05:18:26.352Z,65.15
2022-10-18T05:20:52.955Z,66.01
2022-10-18T05:23:19.563Z,66.06
2022-10-18T05:25:46.280Z,66.58
2022-10-18T05:28:34.694Z,66.55
2022-10-18T05:31:04.378Z,65.63
2022-10-18T05:33:31.012Z,65.91
2022-10-18T05:35:57.938Z,67.33
2022-10-18T05:38:24.992Z,66.20
2022-10-18T05:40:52.123Z,66.69
2022-10-18T05:43:18.795Z,67.22
2022-10-18T05:45:51.537Z,66.99
2022-10-18T05:48:18.654Z,66.73
2022-10-18T05:50:45.811Z,66.32
2022-10-18T05:53:24.680Z,67.84
2022-10-18T05:56:02.741Z,67.34
2022-10-18T05:58:29.390Z,67.83
2022-10-18T06:01:01.511Z,67.58
2022-10-18T06:03:30.340Z,67.21
2022-10-18T06:06:05.347Z,67.47
2022-10-18T06:08:32.688Z,67.51
2022-10-18T06:10:59.709Z,67.70
2022-10-18T06:13:26.381Z,67.54
2022-10-18T06:15:57.511Z,66.96
2022-10-18T06:18:24.151Z,67.22
2022-10-18T06:20:56.970Z,67.00
2022-10-18T06:23:23.555Z,67.56
2022-10-18T06:25:50.157Z,67.80
2022-10-18T06:28:17.278Z,67.80
2022-10-18T06:30:44.570Z,67.76
2022-10-18T06:33:12.116Z,68.23
2022-10-18T06:35:38.683Z,67.85
2022-10-18T06:38:06.321Z,67.42
2022-10-18T06:40:37.956Z,67.35
2022-10-18T06:43:20.007Z,68.11
2022-10-18T06:45:47.046Z,68.73
2022-10-18T06:48:13.642Z,67.57
2022-10-18T06:50:40.314Z,67.65
2022-10-18T06:53:09.036Z,67.38
2022-10-18T06:55:36.252Z,67.42
2022-10-18T06:58:03.016Z,68.35
2022-10-18T07:00:29.757Z,70.38
2022-10-18T07:02:58.310Z,69.14
2022-10-18T07:05:25.126Z,67.56
2022-10-18T07:07:54.336Z,67.23
2022-10-18T07:10:23.916Z,67.30
2022-10-18T07:12:53.445Z,68.29
2022-10-18T07:15:24.188Z,68.11
2022-10-18T07:17:50.938Z,69.16
2022-10-18T07:20:17.789Z,69.02
2022-10-18T07:22:44.374Z,69.54
2022-10-18T07:25:11.161Z,68.91
2022-10-18T07:27:39.917Z,68.39
2022-10-18T07:30:08.340Z,68.78
2022-10-18T07:32:35.019Z,69.01
2022-10-18T07:35:02.541Z,69.78
2022-10-18T07:37:30.274Z,69.28
2022-10-18T07:39:57.036Z,68.51
2022-10-18T07:42:23.691Z,68.55
2022-10-18T07:44:50.653Z,68.04
2022-10-18T07:47:17.331Z,68.40
2022-10-18T07:49:44.052Z,67.10
2022-10-18T07:52:11.255Z,66.75
2022-10-18T07:54:37.875Z,67.45
2022-10-18T07:57:05.108Z,66.04
2022-10-18T07:59:31.677Z,65.46
2022-10-18T08:01:58.302Z,65.29
2022-10-18T08:04:24.950Z,64.88
2022-10-18T08:06:51.862Z,64.34
2022-10-18T08:09:18.448Z,63.50
2022-10-18T08:11:45.022Z,63.69
2022-10-18T08:14:11.643Z,62.41
2022-10-18T08:16:38.223Z,62.31
2022-10-18T08:19:04.850Z,60.83
2022-10-18T08:21:31.928Z,61.57
2022-10-18T08:23:58.539Z,60.52
2022-10-18T08:26:25.166Z,59.58
2022-10-18T08:29:10.386Z,59.27
2022-10-18T08:31:38.671Z,56.71
2022-10-18T08:34:05.249Z,57.41
2022-10-18T08:36:31.972Z,58.18
2022-10-18T08:38:58.765Z,59.87
2022-10-18T08:41:37.321Z,58.95
2022-10-18T08:44:30.873Z,57.68
2022-10-18T08:47:11.568Z,55.74
2022-10-18T08:49:47.609Z,55.66
2022-10-18T08:52:28.406Z,55.34
2022-10-18T08:55:04.230Z,55.75
2022-10-18T08:57:32.836Z,54.83
2022-10-18T08:59:59.868Z,54.80
2022-10-18T09:02:44.975Z,54.29
2022-10-18T09:05:29.563Z,54.56
2022-10-18T09:08:32.947Z,53.50
2022-10-18T09:11:36.648Z,51.80
2022-10-18T09:14:10.899Z,51.36
2022-10-18T09:16:37.443Z,52.95
2022-10-18T09:19:25.323Z,48.29
2022-10-18T09:21:55.340Z,49.19
2022-10-18T09:24:40.214Z,47.83
2022-10-18T09:27:18.598Z,46.93
2022-10-18T09:30:15.540Z,49.14
2022-10-18T09:32:54.803Z,50.17
2022-10-18T09:35:29.828Z,49.71
2022-10-18T09:38:04.298Z,48.62
2022-10-18T09:40:35.431Z,49.50
2022-10-18T09:43:08.358Z,48.53
2022-10-18T09:45:39.118Z,46.63
2022-10-18T09:48:29.026Z,47.00
2022-10-18T09:51:04.479Z,44.46
2022-10-18T09:53:47.567Z,43.84
2022-10-18T09:56:20.803Z,46.43
2022-10-18T09:58:51.446Z,45.36
2022-10-18T10:01:30.783Z,42.90
2022-10-18T10:03:57.747Z,43.40
2022-10-18T10:06:38.718Z,43.22
2022-10-18T10:09:14.108Z,42.19
2022-10-18T10:11:47.183Z,41.15
2022-10-18T10:14:28.826Z,40.63
2022-10-18T10:17:04.070Z,40.60
2022-10-18T10:19:41.084Z,39.84
2022-10-18T10:22:12.114Z,40.97
2022-10-18T10:24:41.491Z,39.91
2022-10-18T10:27:21.173Z,41.63
2022-10-18T10:29:47.778Z,39.74
2022-10-18T10:32:17.243Z,38.75
2022-10-18T10:34:45.041Z,36.99
2022-10-18T10:37:36.619Z,35.57
2022-10-18T10:40:28.401Z,38.79
2022-10-18T10:43:13.187Z,39.32
2022-10-18T10:46:10.071Z,37.47
2022-10-18T10:48:47.223Z,38.58
2022-10-18T10:51:16.166Z,37.85
2022-10-18T10:53:57.348Z,38.76
2022-10-18T10:56:30.945Z,37.43
2022-10-18T10:59:08.902Z,37.42
2022-10-18T11:01:36.567Z,36.28
2022-10-18T11:04:24.920Z,38.96
2022-10-18T11:07:05.086Z,37.12
2022-10-18T11:09:53.277Z,37.28
2022-10-18T11:12:25.838Z,35.81
2022-10-18T11:15:32.665Z,36.36
2022-10-18T11:18:23.163Z,33.29
2022-10-18T11:20:57.098Z,36.17
2022-10-18T11:23:30.934Z,31.33
2022-10-18T11:26:12.861Z,33.44
2022-10-18T11:28:51.599Z,33.69
2022-10-18T11:31:35.612Z,32.92
2022-10-18T11:34:10.339Z,35.23
2022-10-18T11:37:27.135Z,34.62
2022-10-18T11:40:26.850Z,34.06
2022-10-18T11:43:11.610Z,35.89
2022-10-18T11:45:50.459Z,34.96
2022-10-18T11:48:35.467Z,33.57
2022-10-18T11:51:02.082Z,33.21
2022-10-18T11:53:48.369Z,30.45
2022-10-18T11:56:42.650Z,31.35
2022-10-18T11:59:32.251Z,29.76
2022-10-18T12:02:27.738Z,30.59
2022-10-18T12:07:59.111Z,32.76
2022-10-18T12:10:44.105Z,33.30
2022-10-18T12:13:35.336Z,32.63
2022-10-18T12:16:07.166Z,33.75
2022-10-18T12:18:36.148Z,32.32
2022-10-18T12:21:05.578Z,32.07
2022-10-18T12:23:38.162Z,34.14
2022-10-18T12:26:07.908Z,33.95
2022-10-18T12:28:43.771Z,34.81
2022-10-18T12:31:40.042Z,35.57
2022-10-18T12:34:21.935Z,35.85
2022-10-18T12:37:08.756Z,34.65
2022-10-18T12:39:50.435Z,36.23
2022-10-18T12:42:31.968Z,35.64
2022-10-18T12:45:13.889Z,34.61
2022-10-18T12:47:40.789Z,34.89
2022-10-18T12:50:26.924Z,34.92
2022-10-18T12:53:19.212Z,33.66
2022-10-18T12:55:51.725Z,33.24
2022-10-18T12:58:28.531Z,32.97
2022-10-18T13:00:57.423Z,34.55
2022-10-18T13:03:26.966Z,33.65
2022-10-18T13:06:00.708Z,31.00
2022-10-18T13:08:28.460Z,32.76
2022-10-18T13:11:10.231Z,31.38
2022-10-18T13:13:43.869Z,30.39
2022-10-18T13:16:42.959Z,32.17
2022-10-18T13:19:18.475Z,32.42
2022-10-18T13:22:14.175Z,31.79
2022-10-18T13:25:01.903Z,33.17
2022-10-18T13:27:36.774Z,33.84
2022-10-18T13:30:18.562Z,32.96
2022-10-18T13:33:03.853Z,33.27
2022-10-18T13:35:58.465Z,33.31
2022-10-18T13:38:49.763Z,34.92
2022-10-18T13:41:19.726Z,35.32
2022-10-18T13:43:56.150Z,35.19
2022-10-18T13:46:45.735Z,35.64
2022-10-18T13:49:39.812Z,36.17
2022-10-18T13:52:25.067Z,35.24
2022-10-18T13:55:14.730Z,36.24
2022-10-18T13:58:07.906Z,36.54
2022-10-18T14:00:56.272Z,37.08
2022-10-18T14:03:56.776Z,37.10
2022-10-18T14:06:29.061Z,37.14
2022-10-18T14:09:09.398Z,37.04
2022-10-18T14:12:14.164Z,38.54
2022-10-18T14:14:55.808Z,38.28
2022-10-18T14:17:51.795Z,38.41
2022-10-18T14:20:32.741Z,38.39
2022-10-18T14:23:08.071Z,38.22
2022-10-18T14:25:36.817Z,39.25
2022-10-18T14:28:16.845Z,38.86
2022-10-18T14:31:07.274Z,39.59
2022-10-18T14:33:38.008Z,40.80
2022-10-18T14:36:15.821Z,39.27
2022-10-18T14:39:06.829Z,39.46
2022-10-18T14:41:47.398Z,39.15
2022-10-18T14:44:18.580Z,39.36
2022-10-18T14:46:52.023Z,39.38
2022-10-18T14:49:20.548Z,39.73
2022-10-18T14:51:56.318Z,39.46
2022-10-18T14:54:31.574Z,39.72
2022-10-18T14:57:00.541Z,39.67
2022-10-18T14:59:29.648Z,39.76
2022-10-18T15:02:00.024Z,40.40
2022-10-18T15:04:33.201Z,41.96
2022-10-18T15:07:05.917Z,41.99
2022-10-18T15:09:35.435Z,40.14
2022-10-18T15:12:07.106Z,40.39
2022-10-18T15:14:34.840Z,42.69
2022-10-18T15:17:26.068Z,43.83
2022-10-18T15:19:59.365Z,43.68
2022-10-18T15:22:33.318Z,43.23
2022-10-18T15:25:11.338Z,42.29
2022-10-18T15:27:39.621Z,43.92
2022-10-18T15:30:17.763Z,43.39
2022-10-18T15:32:51.102Z,42.47
2022-10-18T15:35:26.124Z,42.73
2022-10-18T15:37:54.092Z,42.21
2022-10-18T15:40:23.488Z,42.58
2022-10-18T15:42:52.298Z,42.10
2022-10-18T15:45:24.680Z,42.30
2022-10-18T15:48:10.763Z,41.93
2022-10-18T15:50:41.060Z,42.54
2022-10-18T15:53:23.007Z,42.31
2022-10-18T15:56:31.345Z,42.28
2022-10-18T15:58:59.921Z,42.40
2022-10-18T16:01:43.299Z,42.15
2022-10-18T16:04:30.728Z,42.08
2022-10-18T16:06:58.195Z,41.96
2022-10-18T16:09:27.513Z,42.06
2022-10-18T16:11:57.274Z,42.90
2022-10-18T16:14:25.632Z,42.70
2022-10-18T16:16:55.830Z,43.23
2022-10-18T16:19:22.962Z,43.33
2022-10-18T16:21:51.140Z,42.50
2022-10-18T16:24:18.836Z,43.23
2022-10-18T16:26:46.054Z,43.51
2022-10-18T16:29:21.617Z,43.59
2022-10-18T16:31:48.215Z,43.28
2022-10-18T16:34:14.925Z,43.56
2022-10-18T16:36:41.907Z,43.62
2022-10-18T16:39:15.262Z,43.67
2022-10-18T16:41:41.870Z,43.59
2022-10-18T16:44:08.545Z,43.63
2022-10-18T16:46:36.220Z,44.50
2022-10-18T16:49:03.499Z,43.57
2022-10-18T16:51:30.193Z,44.02
2022-10-18T16:53:57.100Z,44.12
2022-10-18T16:56:32.426Z,45.12
2022-10-18T16:58:59.835Z,45.33
2022-10-18T17:01:27.372Z,45.22
2022-10-18T17:03:55.310Z,45.22
2022-10-18T17:06:25.855Z,45.15
2022-10-18T17:08:53.907Z,45.22
2022-10-18T17:11:21.816Z,45.13
2022-10-18T17:13:48.488Z,45.40
2022-10-18T17:16:23.242Z,45.04
2022-10-18T17:18:49.978Z,45.52
2022-10-18T17:21:16.788Z,45.88
2022-10-18T17:23:43.364Z,45.68
2022-10-18T17:26:28.200Z,45.71
2022-10-18T17:28:58.382Z,46.05
2022-10-18T17:31:25.348Z,47.12
2022-10-18T17:33:54.679Z,46.61
2022-10-18T17:36:21.850Z,47.72
2022-10-18T17:38:52.068Z,46.47
2022-10-18T17:41:18.671Z,47.62
2022-10-18T17:43:45.393Z,47.32
2022-10-18T17:46:13.249Z,47.45
2022-10-18T17:48:41.021Z,47.31
2022-10-18T17:51:09.483Z,47.17
2022-10-18T17:53:36.434Z,47.29
2022-10-18T17:56:04.616Z,47.59
2022-10-18T17:58:32.261Z,48.17
2022-10-18T18:01:12.824Z,48.26
2022-10-18T18:03:39.889Z,48.48
2022-10-18T18:06:13.556Z,47.99
2022-10-18T18:08:40.149Z,48.90
2022-10-18T18:11:07.156Z,48.46
2022-10-18T18:13:33.803Z,48.14
2022-10-18T18:16:14.129Z,48.20
2022-10-18T18:18:41.141Z,48.98
2022-10-18T18:21:07.862Z,48.70
2022-10-18T18:23:34.477Z,48.79
2022-10-18T18:26:01.114Z,49.14
2022-10-18T18:28:27.859Z,50.61
2022-10-18T18:30:54.476Z,50.15
2022-10-18T18:33:21.187Z,50.22
2022-10-18T18:35:58.182Z,49.90
2022-10-18T18:38:25.602Z,49.72
2022-10-18T18:41:10.743Z,49.01
2022-10-18T18:43:38.730Z,50.09
2022-10-18T18:46:05.840Z,49.82
2022-10-18T18:48:34.216Z,49.35
2022-10-18T18:51:01.932Z,49.76
2022-10-18T18:53:29.752Z,50.03
2022-10-18T18:56:08.060Z,49.68
2022-10-18T18:58:36.551Z,50.88
2022-10-18T19:01:17.966Z,51.65
2022-10-18T19:03:47.444Z,52.25
2022-10-18T19:06:19.690Z,52.42
2022-10-18T19:08:46.891Z,52.97
2022-10-18T19:11:16.743Z,52.96
2022-10-18T19:13:43.547Z,53.11
2022-10-18T19:16:26.605Z,52.43
2022-10-18T19:18:58.929Z,52.79
2022-10-18T19:21:28.963Z,53.61
2022-10-18T19:23:56.582Z,55.24
2022-10-18T19:26:45.393Z,55.09
2022-10-18T19:29:14.314Z,54.86
2022-10-18T19:31:41.253Z,54.92
2022-10-18T19:34:10.574Z,55.36
2022-10-18T19:36:38.141Z,57.16
2022-10-18T19:39:07.121Z,57.74
2022-10-18T19:41:33.768Z,58.48
2022-10-18T19:44:00.563Z,57.68
2022-10-18T19:46:27.290Z,57.25
2022-10-18T19:48:54.323Z,58.97
2022-10-18T19:51:25.521Z,59.50
2022-10-18T19:53:55.918Z,59.87
2022-10-18T19:56:24.429Z,60.30
2022-10-18T19:58:51.271Z,60.08
2022-10-18T20:01:18.647Z,60.48
2022-10-18T20:03:46.015Z,60.87
2022-10-18T20:06:13.196Z,60.46
2022-10-18T20:08:39.996Z,58.78
2022-10-18T20:11:12.740Z,57.42
2022-10-18T20:13:40.106Z,57.32
2022-10-18T20:16:09.024Z,57.30
2022-10-18T20:18:36.607Z,56.82
2022-10-18T20:21:07.594Z,56.57
2022-10-18T20:23:39.243Z,56.75
2022-10-18T20:26:07.148Z,56.36
2022-10-18T20:28:34.607Z,56.09
2022-10-18T20:31:07.447Z,56.65
2022-10-18T20:33:35.296Z,55.68
2022-10-18T20:36:04.088Z,56.56
2022-10-18T20:38:32.009Z,56.58
2022-10-18T20:41:03.455Z,58.47
2022-10-18T20:43:30.127Z,57.92
2022-10-18T20:45:58.323Z,56.60
2022-10-18T20:48:26.148Z,56.79
2022-10-18T20:50:52.835Z,56.48
2022-10-18T20:53:20.099Z,56.17
2022-10-18T20:55:46.692Z,56.44
2022-10-18T20:58:13.305Z,56.39
2022-10-18T21:00:39.924Z,56.97
2022-10-18T21:03:06.581Z,56.40
2022-10-18T21:05:33.401Z,56.37
2022-10-18T21:07:59.967Z,57.50
2022-10-18T21:10:26.605Z,56.59
2022-10-18T21:12:53.534Z,56.03
2022-10-18T21:15:20.150Z,56.77
2022-10-18T21:17:51.483Z,57.68
2022-10-18T21:20:18.978Z,56.95
2022-10-18T21:22:45.645Z,56.57
2022-10-18T21:25:12.397Z,57.94
2022-10-18T21:27:39.551Z,58.58
2022-10-18T21:30:06.529Z,62.21
2022-10-18T21:32:33.289Z,58.92
2022-10-18T21:35:00.139Z,58.44
2022-10-18T21:37:26.747Z,58.38
2022-10-18T21:39:53.334Z,58.49
2022-10-18T21:42:19.928Z,58.05
2022-10-18T21:44:46.664Z,58.20
2022-10-18T21:47:13.282Z,58.82
2022-10-18T21:49:39.842Z,58.33
2022-10-18T21:52:06.650Z,57.99
2022-10-18T21:54:33.268Z,57.78
2022-10-18T21:56:59.843Z,58.85
2022-10-18T21:59:26.474Z,58.60
2022-10-18T22:01:53.081Z,57.92
2022-10-18T22:04:24.730Z,57.09
2022-10-18T22:06:51.977Z,59.29
2022-10-18T22:09:19.974Z,60.27
2022-10-18T22:11:50.405Z,58.68
2022-10-18T22:14:17.147Z,59.51
2022-10-18T22:16:43.742Z,59.32
2022-10-18T22:19:10.626Z,58.51
2022-10-18T22:21:37.228Z,58.35
2022-10-18T22:24:06.888Z,58.67
2022-10-18T22:26:40.251Z,58.33
2022-10-18T22:29:10.604Z,59.36
2022-10-18T22:31:39.663Z,59.41
2022-10-18T22:34:10.462Z,59.73
2022-10-18T22:36:37.231Z,59.95
2022-10-18T22:39:08.204Z,59.39
2022-10-18T22:41:35.333Z,58.99
2022-10-18T22:44:03.833Z,59.02
2022-10-18T22:46:31.588Z,59.55
2022-10-18T22:48:58.233Z,58.56
2022-10-18T22:51:24.940Z,58.87
2022-10-18T22:53:51.741Z,59.82
2022-10-18T22:56:21.065Z,60.77
2022-10-18T22:58:50.775Z,62.09
2022-10-18T23:01:20.797Z,64.57
2022-10-18T23:03:55.515Z,63.16
2022-10-18T23:06:25.327Z,62.88
2022-10-18T23:08:53.536Z,64.00
2022-10-18T23:11:20.751Z,61.41
2022-10-18T23:13:47.905Z,61.59
2022-10-18T23:16:14.879Z,61.32
2022-10-18T23:18:42.887Z,61.62
2022-10-18T23:21:11.956Z,61.35
2022-10-18T23:23:40.906Z,60.58
2022-10-18T23:26:10.811Z,60.37
2022-10-18T23:28:40.183Z,60.54
2022-10-18T23:31:13.756Z,59.70
2022-10-18T23:33:41.252Z,60.67
2022-10-18T23:36:08.958Z,59.91
2022-10-18T23:38:36.864Z,59.93
2022-10-18T23:41:08.231Z,60.31
2022-10-18T23:43:35.436Z,59.56
2022-10-18T23:46:02.641Z,59.40
2022-10-18T23:48:29.295Z,60.41
2022-10-18T23:50:56.060Z,59.67
2022-10-18T23:53:23.251Z,59.38
2022-10-18T23:55:54.399Z,59.15
2022-10-18T23:58:20.985Z,59.76
